sensor_id;sensor_type;location;lat;lon;timestamp;temperature;humidity
21306;DHT22;10812;51.838;5.838;2022-10-31T00:01:14;13.10;99.90
21306;DHT22;10812;51.838;5.838;2022-10-31T00:03:42;13.10;99.90
21306;DHT22;10812;51.838;5.838;2022-10-31T00:06:11;13.00;99.90
21306;DHT22;10812;51.838;5.838;2022-10-31T00:08:39;13.00;99.90
21306;DHT22;10812;51.838;5.838;2022-10-31T00:11:08;13.00;99.90
21306;DHT22;10812;51.838;5.838;2022-10-31T00:13:37;12.90;99.90
21306;DHT22;10812;51.838;5.838;2022-10-31T00:16:13;13.00;99.90
21306;DHT22;10812;51.838;5.838;2022-10-31T00:18:41;12.90;99.90
21306;DHT22;10812;51.838;5.838;2022-10-31T00:21:10;12.90;99.90
21306;DHT22;10812;51.838;5.838;2022-10-31T00:23:38;12.90;99.90
21306;DHT22;10812;51.838;5.838;2022-10-31T00:26:06;12.80;99.90
21306;DHT22;10812;51.838;5.838;2022-10-31T00:28:34;12.80;99.90
21306;DHT22;10812;51.838;5.838;2022-10-31T00:42:35;12.70;99.90
21306;DHT22;10812;51.838;5.838;2022-10-31T00:45:04;12.60;99.90
21306;DHT22;10812;51.838;5.838;2022-10-31T00:47:32;12.60;99.90
21306;DHT22;10812;51.838;5.838;2022-10-31T00:50:00;12.60;99.90
21306;DHT22;10812;51.838;5.838;2022-10-31T00:52:28;12.60;99.90
21306;DHT22;10812;51.838;5.838;2022-10-31T00:54:56;12.60;99.90
21306;DHT22;10812;51.838;5.838;2022-10-31T00:57:24;12.50;99.90
21306;DHT22;10812;51.838;5.838;2022-10-31T00:59:54;12.40;99.90
21306;DHT22;10812;51.838;5.838;2022-10-31T01:02:22;12.30;99.90
21306;DHT22;10812;51.838;5.838;2022-10-31T01:04:50;12.30;99.90
21306;DHT22;10812;51.838;5.838;2022-10-31T01:07:18;12.30;99.90
21306;DHT22;10812;51.838;5.838;2022-10-31T01:09:46;12.30;99.90
21306;DHT22;10812;51.838;5.838;2022-10-31T01:12:15;12.20;99.90
21306;DHT22;10812;51.838;5.838;2022-10-31T01:14:43;12.20;99.90
21306;DHT22;10812;51.838;5.838;2022-10-31T01:17:14;12.20;99.90
21306;DHT22;10812;51.838;5.838;2022-10-31T01:19:42;12.10;99.90
21306;DHT22;10812;51.838;5.838;2022-10-31T01:22:10;12.10;99.90
21306;DHT22;10812;51.838;5.838;2022-10-31T01:24:38;12.10;99.90
21306;DHT22;10812;51.838;5.838;2022-10-31T01:27:06;12.10;99.90
21306;DHT22;10812;51.838;5.838;2022-10-31T01:29:34;12.20;99.90
21306;DHT22;10812;51.838;5.838;2022-10-31T01:32:02;12.20;99.90
21306;DHT22;10812;51.838;5.838;2022-10-31T01:34:32;12.20;99.90
21306;DHT22;10812;51.838;5.838;2022-10-31T01:37:00;12.20;99.90
21306;DHT22;10812;51.838;5.838;2022-10-31T01:39:28;12.20;99.90
21306;DHT22;10812;51.838;5.838;2022-10-31T01:41:56;12.20;99.90
21306;DHT22;10812;51.838;5.838;2022-10-31T01:44:48;12.20;99.90
21306;DHT22;10812;51.838;5.838;2022-10-31T01:47:21;12.10;99.90
21306;DHT22;10812;51.838;5.838;2022-10-31T01:49:57;12.10;99.90
21306;DHT22;10812;51.838;5.838;2022-10-31T01:52:29;12.00;99.90
21306;DHT22;10812;51.838;5.838;2022-10-31T01:55:00;12.00;99.90
21306;DHT22;10812;51.838;5.838;2022-10-31T01:57:31;12.00;99.90
21306;DHT22;10812;51.838;5.838;2022-10-31T02:00:03;12.00;99.90
21306;DHT22;10812;51.838;5.838;2022-10-31T02:02:32;12.10;99.90
21306;DHT22;10812;51.838;5.838;2022-10-31T02:05:06;12.10;99.90
21306;DHT22;10812;51.838;5.838;2022-10-31T02:07:39;12.10;99.90
21306;DHT22;10812;51.838;5.838;2022-10-31T02:10:09;12.10;99.90
21306;DHT22;10812;51.838;5.838;2022-10-31T02:12:38;12.10;99.90
21306;DHT22;10812;51.838;5.838;2022-10-31T02:15:08;12.10;99.90
21306;DHT22;10812;51.838;5.838;2022-10-31T02:17:37;12.10;99.90
21306;DHT22;10812;51.838;5.838;2022-10-31T02:20:14;12.20;99.90
21306;DHT22;10812;51.838;5.838;2022-10-31T02:23:10;12.20;99.90
21306;DHT22;10812;51.838;5.838;2022-10-31T02:25:53;12.30;99.90
21306;DHT22;10812;51.838;5.838;2022-10-31T02:28:54;12.30;99.90
21306;DHT22;10812;51.838;5.838;2022-10-31T02:31:32;12.30;99.90
21306;DHT22;10812;51.838;5.838;2022-10-31T02:34:07;12.30;99.90
21306;DHT22;10812;51.838;5.838;2022-10-31T02:36:42;12.30;99.90
21306;DHT22;10812;51.838;5.838;2022-10-31T02:39:16;12.30;99.90
21306;DHT22;10812;51.838;5.838;2022-10-31T02:41:50;12.30;99.90
21306;DHT22;10812;51.838;5.838;2022-10-31T02:44:25;12.30;99.90
21306;DHT22;10812;51.838;5.838;2022-10-31T02:46:59;12.20;99.90
21306;DHT22;10812;51.838;5.838;2022-10-31T02:49:33;12.20;99.90
21306;DHT22;10812;51.838;5.838;2022-10-31T02:52:13;12.10;99.90
21306;DHT22;10812;51.838;5.838;2022-10-31T02:54:42;12.20;99.90
21306;DHT22;10812;51.838;5.838;2022-10-31T02:57:11;12.20;99.90
21306;DHT22;10812;51.838;5.838;2022-10-31T02:59:44;12.20;99.90
21306;DHT22;10812;51.838;5.838;2022-10-31T03:07:42;12.00;99.90
21306;DHT22;10812;51.838;5.838;2022-10-31T03:10:16;11.90;99.90
21306;DHT22;10812;51.838;5.838;2022-10-31T03:12:49;11.90;99.90
21306;DHT22;10812;51.838;5.838;2022-10-31T03:15:24;11.90;99.90
21306;DHT22;10812;51.838;5.838;2022-10-31T03:17:58;11.80;99.90
21306;DHT22;10812;51.838;5.838;2022-10-31T03:20:32;11.80;99.90
21306;DHT22;10812;51.838;5.838;2022-10-31T03:23:03;11.70;99.90
21306;DHT22;10812;51.838;5.838;2022-10-31T03:25:33;11.70;99.90
21306;DHT22;10812;51.838;5.838;2022-10-31T03:28:04;11.60;99.90
21306;DHT22;10812;51.838;5.838;2022-10-31T03:30:35;11.60;99.90
21306;DHT22;10812;51.838;5.838;2022-10-31T03:33:11;11.60;99.90
21306;DHT22;10812;51.838;5.838;2022-10-31T03:35:42;11.60;99.90
21306;DHT22;10812;51.838;5.838;2022-10-31T03:38:14;11.60;99.90
21306;DHT22;10812;51.838;5.838;2022-10-31T03:40:45;11.60;99.90
21306;DHT22;10812;51.838;5.838;2022-10-31T03:43:16;11.60;99.90
21306;DHT22;10812;51.838;5.838;2022-10-31T03:45:47;11.50;99.90
21306;DHT22;10812;51.838;5.838;2022-10-31T03:48:17;11.50;99.90
21306;DHT22;10812;51.838;5.838;2022-10-31T03:50:56;11.60;99.90
21306;DHT22;10812;51.838;5.838;2022-10-31T03:53:32;11.50;99.90
21306;DHT22;10812;51.838;5.838;2022-10-31T03:56:05;11.40;99.90
21306;DHT22;10812;51.838;5.838;2022-10-31T03:58:38;11.40;99.90
21306;DHT22;10812;51.838;5.838;2022-10-31T04:01:12;11.30;99.90
21306;DHT22;10812;51.838;5.838;2022-10-31T04:03:43;11.30;99.90
21306;DHT22;10812;51.838;5.838;2022-10-31T04:06:13;11.30;99.90
21306;DHT22;10812;51.838;5.838;2022-10-31T04:08:47;11.30;99.90
21306;DHT22;10812;51.838;5.838;2022-10-31T04:11:19;11.30;99.90
21306;DHT22;10812;51.838;5.838;2022-10-31T04:13:48;11.30;99.90
21306;DHT22;10812;51.838;5.838;2022-10-31T04:16:17;11.20;99.90
21306;DHT22;10812;51.838;5.838;2022-10-31T04:18:46;11.20;99.90
21306;DHT22;10812;51.838;5.838;2022-10-31T04:21:14;11.20;99.90
21306;DHT22;10812;51.838;5.838;2022-10-31T04:23:44;11.10;99.90
21306;DHT22;10812;51.838;5.838;2022-10-31T04:26:12;11.20;99.90
21306;DHT22;10812;51.838;5.838;2022-10-31T04:28:41;11.10;99.90
21306;DHT22;10812;51.838;5.838;2022-10-31T04:31:10;11.20;99.90
21306;DHT22;10812;51.838;5.838;2022-10-31T04:33:38;11.30;99.90
21306;DHT22;10812;51.838;5.838;2022-10-31T04:36:07;11.30;99.90
21306;DHT22;10812;51.838;5.838;2022-10-31T04:38:35;11.40;99.90
21306;DHT22;10812;51.838;5.838;2022-10-31T04:41:05;11.40;99.90
21306;DHT22;10812;51.838;5.838;2022-10-31T04:43:33;11.40;99.90
21306;DHT22;10812;51.838;5.838;2022-10-31T04:46:01;11.40;99.90
21306;DHT22;10812;51.838;5.838;2022-10-31T04:48:29;11.40;99.90
21306;DHT22;10812;51.838;5.838;2022-10-31T04:51:01;11.30;99.90
21306;DHT22;10812;51.838;5.838;2022-10-31T04:53:29;11.30;99.90
21306;DHT22;10812;51.838;5.838;2022-10-31T04:55:57;11.30;99.90
21306;DHT22;10812;51.838;5.838;2022-10-31T04:58:27;11.30;99.90
21306;DHT22;10812;51.838;5.838;2022-10-31T05:08:37;11.10;99.90
21306;DHT22;10812;51.838;5.838;2022-10-31T05:11:05;11.10;99.90
21306;DHT22;10812;51.838;5.838;2022-10-31T05:13:35;11.20;99.90
21306;DHT22;10812;51.838;5.838;2022-10-31T05:16:03;11.20;99.90
21306;DHT22;10812;51.838;5.838;2022-10-31T05:18:31;11.20;99.90
21306;DHT22;10812;51.838;5.838;2022-10-31T05:20:59;11.20;99.90
21306;DHT22;10812;51.838;5.838;2022-10-31T05:23:27;11.10;99.90
21306;DHT22;10812;51.838;5.838;2022-10-31T05:25:55;11.10;99.90
21306;DHT22;10812;51.838;5.838;2022-10-31T05:28:23;11.10;99.90
21306;DHT22;10812;51.838;5.838;2022-10-31T05:30:53;11.00;99.90
21306;DHT22;10812;51.838;5.838;2022-10-31T05:33:21;10.90;99.90
21306;DHT22;10812;51.838;5.838;2022-10-31T05:35:49;10.80;99.90
21306;DHT22;10812;51.838;5.838;2022-10-31T05:38:17;10.80;99.90
21306;DHT22;10812;51.838;5.838;2022-10-31T05:40:45;10.80;99.90
21306;DHT22;10812;51.838;5.838;2022-10-31T05:43:13;10.80;99.90
21306;DHT22;10812;51.838;5.838;2022-10-31T05:45:41;10.90;99.90
21306;DHT22;10812;51.838;5.838;2022-10-31T05:48:11;10.80;99.90
21306;DHT22;10812;51.838;5.838;2022-10-31T05:50:39;10.90;99.90
21306;DHT22;10812;51.838;5.838;2022-10-31T05:53:07;10.80;99.90
21306;DHT22;10812;51.838;5.838;2022-10-31T05:55:36;10.70;99.90
21306;DHT22;10812;51.838;5.838;2022-10-31T05:58:04;10.70;99.90
21306;DHT22;10812;51.838;5.838;2022-10-31T06:00:32;10.70;99.90
21306;DHT22;10812;51.838;5.838;2022-10-31T06:03:03;10.60;99.90
21306;DHT22;10812;51.838;5.838;2022-10-31T06:05:33;10.60;99.90
21306;DHT22;10812;51.838;5.838;2022-10-31T06:08:01;10.70;99.90
21306;DHT22;10812;51.838;5.838;2022-10-31T06:10:30;10.70;99.90
21306;DHT22;10812;51.838;5.838;2022-10-31T06:12:58;10.70;99.90
21306;DHT22;10812;51.838;5.838;2022-10-31T06:15:26;10.80;99.90
21306;DHT22;10812;51.838;5.838;2022-10-31T06:17:59;10.70;99.90
21306;DHT22;10812;51.838;5.838;2022-10-31T06:20:28;10.70;99.90
21306;DHT22;10812;51.838;5.838;2022-10-31T06:22:57;10.80;99.90
21306;DHT22;10812;51.838;5.838;2022-10-31T06:25:26;10.80;99.90
21306;DHT22;10812;51.838;5.838;2022-10-31T06:27:54;10.80;99.90
21306;DHT22;10812;51.838;5.838;2022-10-31T06:30:23;10.70;99.90
21306;DHT22;10812;51.838;5.838;2022-10-31T06:32:52;10.70;99.90
21306;DHT22;10812;51.838;5.838;2022-10-31T06:35:20;10.80;99.90
21306;DHT22;10812;51.838;5.838;2022-10-31T06:37:51;10.70;99.90
21306;DHT22;10812;51.838;5.838;2022-10-31T06:40:22;10.80;99.90
21306;DHT22;10812;51.838;5.838;2022-10-31T06:42:56;10.80;99.90
21306;DHT22;10812;51.838;5.838;2022-10-31T06:45:25;10.80;99.90
21306;DHT22;10812;51.838;5.838;2022-10-31T06:47:53;10.80;99.90
21306;DHT22;10812;51.838;5.838;2022-10-31T06:50:41;10.70;99.90
21306;DHT22;10812;51.838;5.838;2022-10-31T06:53:10;10.70;99.90
21306;DHT22;10812;51.838;5.838;2022-10-31T06:55:40;10.60;99.90
21306;DHT22;10812;51.838;5.838;2022-10-31T06:58:10;10.60;99.90
21306;DHT22;10812;51.838;5.838;2022-10-31T07:00:38;10.60;99.90
21306;DHT22;10812;51.838;5.838;2022-10-31T07:03:09;10.60;99.90
21306;DHT22;10812;51.838;5.838;2022-10-31T07:05:37;10.70;99.90
21306;DHT22;10812;51.838;5.838;2022-10-31T07:08:07;10.80;99.90
21306;DHT22;10812;51.838;5.838;2022-10-31T07:10:37;10.90;99.90
21306;DHT22;10812;51.838;5.838;2022-10-31T07:13:11;11.00;99.90
21306;DHT22;10812;51.838;5.838;2022-10-31T07:15:41;11.20;99.90
21306;DHT22;10812;51.838;5.838;2022-10-31T07:18:11;11.40;99.90
21306;DHT22;10812;51.838;5.838;2022-10-31T07:20:39;11.60;99.90
21306;DHT22;10812;51.838;5.838;2022-10-31T07:23:08;11.70;99.90
21306;DHT22;10812;51.838;5.838;2022-10-31T07:25:37;11.90;99.90
21306;DHT22;10812;51.838;5.838;2022-10-31T07:28:05;12.00;99.90
21306;DHT22;10812;51.838;5.838;2022-10-31T07:30:36;12.30;99.90
21306;DHT22;10812;51.838;5.838;2022-10-31T07:33:04;12.70;99.90
21306;DHT22;10812;51.838;5.838;2022-10-31T07:35:32;13.10;99.90
21306;DHT22;10812;51.838;5.838;2022-10-31T07:38:08;13.70;99.90
21306;DHT22;10812;51.838;5.838;2022-10-31T07:40:37;14.40;99.90
21306;DHT22;10812;51.838;5.838;2022-10-31T07:43:05;15.00;99.90
21306;DHT22;10812;51.838;5.838;2022-10-31T07:45:41;15.20;99.90
21306;DHT22;10812;51.838;5.838;2022-10-31T07:48:09;15.70;99.90
21306;DHT22;10812;51.838;5.838;2022-10-31T07:50:37;16.00;99.90
21306;DHT22;10812;51.838;5.838;2022-10-31T07:53:07;16.60;99.90
21306;DHT22;10812;51.838;5.838;2022-10-31T07:55:36;17.00;99.90
21306;DHT22;10812;51.838;5.838;2022-10-31T07:58:05;17.60;99.90
21306;DHT22;10812;51.838;5.838;2022-10-31T08:00:34;18.20;99.90
21306;DHT22;10812;51.838;5.838;2022-10-31T08:03:06;18.80;99.90
21306;DHT22;10812;51.838;5.838;2022-10-31T08:05:35;19.30;99.90
21306;DHT22;10812;51.838;5.838;2022-10-31T08:08:04;19.50;99.90
21306;DHT22;10812;51.838;5.838;2022-10-31T08:10:33;19.80;99.90
21306;DHT22;10812;51.838;5.838;2022-10-31T08:13:03;19.90;99.90
21306;DHT22;10812;51.838;5.838;2022-10-31T08:15:32;20.30;99.90
21306;DHT22;10812;51.838;5.838;2022-10-31T08:18:01;20.30;99.90
21306;DHT22;10812;51.838;5.838;2022-10-31T08:20:30;20.30;99.90
21306;DHT22;10812;51.838;5.838;2022-10-31T08:23:00;20.20;99.90
21306;DHT22;10812;51.838;5.838;2022-10-31T08:25:30;20.50;99.90
21306;DHT22;10812;51.838;5.838;2022-10-31T08:28:04;20.80;99.90
21306;DHT22;10812;51.838;5.838;2022-10-31T08:30:34;21.00;99.90
21306;DHT22;10812;51.838;5.838;2022-10-31T08:33:04;21.40;99.90
21306;DHT22;10812;51.838;5.838;2022-10-31T08:35:34;21.40;99.90
21306;DHT22;10812;51.838;5.838;2022-10-31T08:38:02;22.20;99.90
21306;DHT22;10812;51.838;5.838;2022-10-31T08:40:32;22.20;99.90
21306;DHT22;10812;51.838;5.838;2022-10-31T08:43:03;22.10;99.90
21306;DHT22;10812;51.838;5.838;2022-10-31T08:45:32;21.80;99.90
21306;DHT22;10812;51.838;5.838;2022-10-31T08:48:02;21.80;99.90
21306;DHT22;10812;51.838;5.838;2022-10-31T08:50:34;21.90;99.90
21306;DHT22;10812;51.838;5.838;2022-10-31T08:53:02;22.00;99.90
21306;DHT22;10812;51.838;5.838;2022-10-31T08:55:33;21.70;99.90
21306;DHT22;10812;51.838;5.838;2022-10-31T08:58:02;21.90;99.90
21306;DHT22;10812;51.838;5.838;2022-10-31T09:00:31;22.00;99.90
21306;DHT22;10812;51.838;5.838;2022-10-31T09:03:01;21.80;99.90
21306;DHT22;10812;51.838;5.838;2022-10-31T09:05:29;21.60;99.90
21306;DHT22;10812;51.838;5.838;2022-10-31T09:08:01;21.50;99.90
21306;DHT22;10812;51.838;5.838;2022-10-31T09:10:31;21.30;99.90
21306;DHT22;10812;51.838;5.838;2022-10-31T09:13:01;21.40;99.90
21306;DHT22;10812;51.838;5.838;2022-10-31T09:15:30;21.20;99.90
21306;DHT22;10812;51.838;5.838;2022-10-31T09:17:59;21.50;99.90
21306;DHT22;10812;51.838;5.838;2022-10-31T09:20:27;21.50;99.90
21306;DHT22;10812;51.838;5.838;2022-10-31T09:22:57;20.70;99.90
21306;DHT22;10812;51.838;5.838;2022-10-31T09:25:27;20.10;99.90
21306;DHT22;10812;51.838;5.838;2022-10-31T09:27:56;19.40;99.90
21306;DHT22;10812;51.838;5.838;2022-10-31T09:30:27;18.70;99.90
21306;DHT22;10812;51.838;5.838;2022-10-31T09:32:56;18.40;99.90
21306;DHT22;10812;51.838;5.838;2022-10-31T09:35:25;18.10;99.90
21306;DHT22;10812;51.838;5.838;2022-10-31T09:37:56;17.90;99.90
21306;DHT22;10812;51.838;5.838;2022-10-31T09:40:31;17.80;99.90
21306;DHT22;10812;51.838;5.838;2022-10-31T09:43:07;17.70;99.90
21306;DHT22;10812;51.838;5.838;2022-10-31T09:45:44;17.60;99.90
21306;DHT22;10812;51.838;5.838;2022-10-31T09:48:25;17.40;99.90
21306;DHT22;10812;51.838;5.838;2022-10-31T09:50:58;17.20;99.90
21306;DHT22;10812;51.838;5.838;2022-10-31T09:53:34;17.20;99.90
21306;DHT22;10812;51.838;5.838;2022-10-31T09:56:06;17.10;99.90
21306;DHT22;10812;51.838;5.838;2022-10-31T09:58:40;17.00;99.90
21306;DHT22;10812;51.838;5.838;2022-10-31T10:04:05;17.40;99.90
21306;DHT22;10812;51.838;5.838;2022-10-31T10:06:48;17.40;99.90
21306;DHT22;10812;51.838;5.838;2022-10-31T10:09:18;17.40;99.90
21306;DHT22;10812;51.838;5.838;2022-10-31T10:11:57;17.30;99.90
21306;DHT22;10812;51.838;5.838;2022-10-31T10:14:37;17.20;99.90
21306;DHT22;10812;51.838;5.838;2022-10-31T10:17:23;17.20;99.90
21306;DHT22;10812;51.838;5.838;2022-10-31T10:20:10;17.20;99.90
21306;DHT22;10812;51.838;5.838;2022-10-31T10:22:50;17.10;99.90
21306;DHT22;10812;51.838;5.838;2022-10-31T10:25:22;17.10;99.90
21306;DHT22;10812;51.838;5.838;2022-10-31T10:28:04;17.10;99.90
21306;DHT22;10812;51.838;5.838;2022-10-31T10:30:39;17.00;99.90
21306;DHT22;10812;51.838;5.838;2022-10-31T10:33:11;17.20;99.90
21306;DHT22;10812;51.838;5.838;2022-10-31T10:35:43;17.10;99.90
21306;DHT22;10812;51.838;5.838;2022-10-31T10:38:17;17.10;99.90
21306;DHT22;10812;51.838;5.838;2022-10-31T10:40:46;16.90;99.90
21306;DHT22;10812;51.838;5.838;2022-10-31T10:43:26;16.70;99.90
21306;DHT22;10812;51.838;5.838;2022-10-31T10:46:05;16.70;99.90
21306;DHT22;10812;51.838;5.838;2022-10-31T10:48:55;16.90;99.90
21306;DHT22;10812;51.838;5.838;2022-10-31T10:51:31;16.80;99.90
21306;DHT22;10812;51.838;5.838;2022-10-31T10:54:54;16.90;99.90
21306;DHT22;10812;51.838;5.838;2022-10-31T10:57:35;17.30;99.90
21306;DHT22;10812;51.838;5.838;2022-10-31T11:00:19;17.30;99.90
21306;DHT22;10812;51.838;5.838;2022-10-31T11:02:48;17.20;99.90
21306;DHT22;10812;51.838;5.838;2022-10-31T11:05:26;17.00;99.90
21306;DHT22;10812;51.838;5.838;2022-10-31T11:07:55;16.80;99.90
21306;DHT22;10812;51.838;5.838;2022-10-31T11:10:24;16.80;99.90
21306;DHT22;10812;51.838;5.838;2022-10-31T11:13:03;16.80;99.90
21306;DHT22;10812;51.838;5.838;2022-10-31T11:15:38;16.80;99.90
21306;DHT22;10812;51.838;5.838;2022-10-31T11:18:19;16.90;99.90
21306;DHT22;10812;51.838;5.838;2022-10-31T11:20:51;17.00;99.90
21306;DHT22;10812;51.838;5.838;2022-10-31T11:23:21;17.00;99.90
21306;DHT22;10812;51.838;5.838;2022-10-31T11:25:52;17.00;99.90
21306;DHT22;10812;51.838;5.838;2022-10-31T11:28:22;16.90;99.90
21306;DHT22;10812;51.838;5.838;2022-10-31T11:30:54;17.00;99.90
21306;DHT22;10812;51.838;5.838;2022-10-31T11:33:28;17.10;99.90
21306;DHT22;10812;51.838;5.838;2022-10-31T11:35:57;17.20;99.90
21306;DHT22;10812;51.838;5.838;2022-10-31T11:38:32;17.20;99.90
21306;DHT22;10812;51.838;5.838;2022-10-31T11:41:08;17.60;99.90
21306;DHT22;10812;51.838;5.838;2022-10-31T11:43:38;17.60;99.90
21306;DHT22;10812;51.838;5.838;2022-10-31T11:46:24;17.60;99.90
21306;DHT22;10812;51.838;5.838;2022-10-31T11:48:55;17.80;99.90
21306;DHT22;10812;51.838;5.838;2022-10-31T11:51:28;17.80;99.90
21306;DHT22;10812;51.838;5.838;2022-10-31T11:53:58;18.20;99.90
21306;DHT22;10812;51.838;5.838;2022-10-31T11:56:38;18.30;99.90
21306;DHT22;10812;51.838;5.838;2022-10-31T11:59:18;18.10;99.90
21306;DHT22;10812;51.838;5.838;2022-10-31T12:01:51;18.00;99.90
21306;DHT22;10812;51.838;5.838;2022-10-31T12:04:26;18.20;99.90
21306;DHT22;10812;51.838;5.838;2022-10-31T12:06:55;18.30;99.90
21306;DHT22;10812;51.838;5.838;2022-10-31T12:09:25;18.30;99.90
21306;DHT22;10812;51.838;5.838;2022-10-31T12:14:59;18.30;99.90
21306;DHT22;10812;51.838;5.838;2022-10-31T12:17:36;18.40;99.90
21306;DHT22;10812;51.838;5.838;2022-10-31T12:20:16;18.30;99.90
21306;DHT22;10812;51.838;5.838;2022-10-31T12:22:53;18.30;99.90
21306;DHT22;10812;51.838;5.838;2022-10-31T12:25:34;18.30;99.90
21306;DHT22;10812;51.838;5.838;2022-10-31T12:28:32;18.20;99.90
21306;DHT22;10812;51.838;5.838;2022-10-31T12:31:29;18.40;99.90
21306;DHT22;10812;51.838;5.838;2022-10-31T12:34:14;18.10;99.90
21306;DHT22;10812;51.838;5.838;2022-10-31T12:36:51;18.30;99.90
21306;DHT22;10812;51.838;5.838;2022-10-31T12:39:34;18.60;99.90
21306;DHT22;10812;51.838;5.838;2022-10-31T12:42:12;18.10;99.90
21306;DHT22;10812;51.838;5.838;2022-10-31T12:45:01;18.00;99.90
21306;DHT22;10812;51.838;5.838;2022-10-31T12:47:54;18.30;99.90
21306;DHT22;10812;51.838;5.838;2022-10-31T12:50:31;18.60;99.90
21306;DHT22;10812;51.838;5.838;2022-10-31T12:53:17;18.60;99.90
21306;DHT22;10812;51.838;5.838;2022-10-31T12:55:58;18.50;99.90
21306;DHT22;10812;51.838;5.838;2022-10-31T12:58:32;18.30;99.90
21306;DHT22;10812;51.838;5.838;2022-10-31T13:01:07;18.30;99.90
21306;DHT22;10812;51.838;5.838;2022-10-31T13:03:42;18.30;99.90
21306;DHT22;10812;51.838;5.838;2022-10-31T13:06:18;18.30;99.90
21306;DHT22;10812;51.838;5.838;2022-10-31T13:08:51;18.30;99.90
21306;DHT22;10812;51.838;5.838;2022-10-31T13:11:23;18.30;99.90
21306;DHT22;10812;51.838;5.838;2022-10-31T13:13:58;18.30;99.90
21306;DHT22;10812;51.838;5.838;2022-10-31T13:16:30;18.40;99.90
21306;DHT22;10812;51.838;5.838;2022-10-31T13:19:03;18.30;99.90
21306;DHT22;10812;51.838;5.838;2022-10-31T13:21:37;18.30;99.90
21306;DHT22;10812;51.838;5.838;2022-10-31T13:24:12;18.40;99.90
21306;DHT22;10812;51.838;5.838;2022-10-31T13:26:46;18.40;99.90
21306;DHT22;10812;51.838;5.838;2022-10-31T13:29:20;18.40;99.90
21306;DHT22;10812;51.838;5.838;2022-10-31T13:31:55;18.40;99.90
21306;DHT22;10812;51.838;5.838;2022-10-31T13:34:27;18.40;99.90
21306;DHT22;10812;51.838;5.838;2022-10-31T13:37:04;18.40;99.90
21306;DHT22;10812;51.838;5.838;2022-10-31T13:39:45;18.40;99.90
21306;DHT22;10812;51.838;5.838;2022-10-31T13:42:20;18.50;99.90
21306;DHT22;10812;51.838;5.838;2022-10-31T13:44:51;18.50;99.90
21306;DHT22;10812;51.838;5.838;2022-10-31T13:47:25;18.50;99.90
21306;DHT22;10812;51.838;5.838;2022-10-31T13:50:05;18.50;99.90
21306;DHT22;10812;51.838;5.838;2022-10-31T13:52:35;18.50;99.90
21306;DHT22;10812;51.838;5.838;2022-10-31T13:55:20;18.50;99.90
21306;DHT22;10812;51.838;5.838;2022-10-31T13:57:54;18.60;99.90
21306;DHT22;10812;51.838;5.838;2022-10-31T14:00:25;18.60;99.90
21306;DHT22;10812;51.838;5.838;2022-10-31T14:02:57;18.50;99.90
21306;DHT22;10812;51.838;5.838;2022-10-31T14:05:27;18.50;99.90
21306;DHT22;10812;51.838;5.838;2022-10-31T14:07:59;18.40;99.90
21306;DHT22;10812;51.838;5.838;2022-10-31T14:10:30;18.40;99.90
21306;DHT22;10812;51.838;5.838;2022-10-31T14:13:05;18.30;99.90
21306;DHT22;10812;51.838;5.838;2022-10-31T14:15:36;18.30;99.90
21306;DHT22;10812;51.838;5.838;2022-10-31T14:18:07;18.20;99.90
21306;DHT22;10812;51.838;5.838;2022-10-31T14:20:47;18.10;99.90
21306;DHT22;10812;51.838;5.838;2022-10-31T14:23:37;18.20;99.90
21306;DHT22;10812;51.838;5.838;2022-10-31T14:26:18;18.00;99.90
21306;DHT22;10812;51.838;5.838;2022-10-31T14:28:47;18.10;99.90
21306;DHT22;10812;51.838;5.838;2022-10-31T14:31:34;18.10;99.90
21306;DHT22;10812;51.838;5.838;2022-10-31T14:34:19;18.10;99.90
21306;DHT22;10812;51.838;5.838;2022-10-31T14:39:47;17.90;99.90
21306;DHT22;10812;51.838;5.838;2022-10-31T14:42:32;17.90;99.90
21306;DHT22;10812;51.838;5.838;2022-10-31T14:45:15;18.00;99.90
21306;DHT22;10812;51.838;5.838;2022-10-31T14:47:52;18.00;99.90
21306;DHT22;10812;51.838;5.838;2022-10-31T14:50:47;17.90;99.90
21306;DHT22;10812;51.838;5.838;2022-10-31T14:53:20;17.90;99.90
21306;DHT22;10812;51.838;5.838;2022-10-31T14:55:53;17.90;99.90
21306;DHT22;10812;51.838;5.838;2022-10-31T14:58:23;17.80;99.90
21306;DHT22;10812;51.838;5.838;2022-10-31T15:00:55;17.80;99.90
21306;DHT22;10812;51.838;5.838;2022-10-31T15:03:29;17.70;99.90
21306;DHT22;10812;51.838;5.838;2022-10-31T15:06:01;17.60;99.90
21306;DHT22;10812;51.838;5.838;2022-10-31T15:08:37;17.40;99.90
21306;DHT22;10812;51.838;5.838;2022-10-31T15:11:15;17.30;99.90
21306;DHT22;10812;51.838;5.838;2022-10-31T15:13:46;17.40;99.90
21306;DHT22;10812;51.838;5.838;2022-10-31T15:16:17;17.20;99.90
21306;DHT22;10812;51.838;5.838;2022-10-31T15:18:49;17.30;99.90
21306;DHT22;10812;51.838;5.838;2022-10-31T15:21:20;17.30;99.90
21306;DHT22;10812;51.838;5.838;2022-10-31T15:23:51;17.30;99.90
21306;DHT22;10812;51.838;5.838;2022-10-31T15:26:24;17.20;99.90
21306;DHT22;10812;51.838;5.838;2022-10-31T15:29:00;17.30;99.90
21306;DHT22;10812;51.838;5.838;2022-10-31T15:31:29;17.30;99.90
21306;DHT22;10812;51.838;5.838;2022-10-31T15:34:02;17.30;99.90
21306;DHT22;10812;51.838;5.838;2022-10-31T15:36:32;17.40;99.90
21306;DHT22;10812;51.838;5.838;2022-10-31T15:39:04;17.40;99.90
21306;DHT22;10812;51.838;5.838;2022-10-31T15:41:44;17.40;99.90
21306;DHT22;10812;51.838;5.838;2022-10-31T15:44:23;17.30;99.90
21306;DHT22;10812;51.838;5.838;2022-10-31T15:46:54;17.30;99.90
21306;DHT22;10812;51.838;5.838;2022-10-31T15:49:30;17.30;99.90
21306;DHT22;10812;51.838;5.838;2022-10-31T15:52:07;17.20;99.90
21306;DHT22;10812;51.838;5.838;2022-10-31T15:54:44;17.20;99.90
21306;DHT22;10812;51.838;5.838;2022-10-31T15:57:14;17.20;99.90
21306;DHT22;10812;51.838;5.838;2022-10-31T15:59:47;17.10;99.90
21306;DHT22;10812;51.838;5.838;2022-10-31T16:02:19;17.00;99.90
21306;DHT22;10812;51.838;5.838;2022-10-31T16:04:49;17.00;99.90
21306;DHT22;10812;51.838;5.838;2022-10-31T16:07:18;16.90;99.90
21306;DHT22;10812;51.838;5.838;2022-10-31T16:09:53;16.90;99.90
21306;DHT22;10812;51.838;5.838;2022-10-31T16:12:25;16.90;99.90
21306;DHT22;10812;51.838;5.838;2022-10-31T16:14:55;16.90;99.90
21306;DHT22;10812;51.838;5.838;2022-10-31T16:17:24;16.80;99.90
21306;DHT22;10812;51.838;5.838;2022-10-31T16:19:57;16.90;99.90
21306;DHT22;10812;51.838;5.838;2022-10-31T16:22:28;16.90;99.90
21306;DHT22;10812;51.838;5.838;2022-10-31T16:25:01;16.80;99.90
21306;DHT22;10812;51.838;5.838;2022-10-31T16:27:32;16.70;99.90
21306;DHT22;10812;51.838;5.838;2022-10-31T16:30:27;16.70;99.90
21306;DHT22;10812;51.838;5.838;2022-10-31T16:32:54;16.60;99.90
21306;DHT22;10812;51.838;5.838;2022-10-31T16:35:25;16.60;99.90
21306;DHT22;10812;51.838;5.838;2022-10-31T16:37:54;16.50;99.90